sensor_id;sensor_type;location;lat;lon;timestamp;P1;durP1;ratioP1;P2;durP2;ratioP2
29196;SDS011;62796;42.654;23.316;2022-09-27T00:00:26;11.25;;;9.55;;
29196;SDS011;62796;42.654;23.316;2022-09-27T00:02:52;12.50;;;10.10;;
29196;SDS011;62796;42.654;23.316;2022-09-27T00:05:42;10.18;;;9.07;;
29196;SDS011;62796;42.654;23.316;2022-09-27T00:08:08;13.35;;;9.02;;
29196;SDS011;62796;42.654;23.316;2022-09-27T00:10:33;10.35;;;8.30;;
29196;SDS011;62796;42.654;23.316;2022-09-27T00:12:59;10.05;;;8.32;;
29196;SDS011;62796;42.654;23.316;2022-09-27T00:15:24;10.15;;;8.30;;
29196;SDS011;62796;42.654;23.316;2022-09-27T00:17:50;10.00;;;8.15;;
29196;SDS011;62796;42.654;23.316;2022-09-27T00:20:16;9.68;;;8.13;;
29196;SDS011;62796;42.654;23.316;2022-09-27T00:22:43;10.80;;;8.27;;
29196;SDS011;62796;42.654;23.316;2022-09-27T00:25:09;11.18;;;8.27;;
29196;SDS011;62796;42.654;23.316;2022-09-27T00:27:34;9.88;;;8.40;;
29196;SDS011;62796;42.654;23.316;2022-09-27T00:30:00;10.23;;;8.60;;
29196;SDS011;62796;42.654;23.316;2022-09-27T00:32:25;10.10;;;8.48;;
29196;SDS011;62796;42.654;23.316;2022-09-27T00:34:51;12.88;;;9.30;;
29196;SDS011;62796;42.654;23.316;2022-09-27T00:37:16;11.13;;;8.77;;
29196;SDS011;62796;42.654;23.316;2022-09-27T00:39:42;12.35;;;8.55;;
29196;SDS011;62796;42.654;23.316;2022-09-27T00:42:09;11.50;;;9.25;;
29196;SDS011;62796;42.654;23.316;2022-09-27T00:47:36;12.73;;;9.07;;
29196;SDS011;62796;42.654;23.316;2022-09-27T00:52:48;9.38;;;8.05;;
29196;SDS011;62796;42.654;23.316;2022-09-27T00:55:27;14.00;;;8.23;;
29196;SDS011;62796;42.654;23.316;2022-09-27T00:57:55;12.63;;;8.47;;
29196;SDS011;62796;42.654;23.316;2022-09-27T01:00:21;11.55;;;8.95;;
29196;SDS011;62796;42.654;23.316;2022-09-27T01:02:51;13.02;;;9.20;;
29196;SDS011;62796;42.654;23.316;2022-09-27T01:05:19;13.00;;;9.55;;
29196;SDS011;62796;42.654;23.316;2022-09-27T01:07:48;11.02;;;8.70;;
29196;SDS011;62796;42.654;23.316;2022-09-27T01:10:13;12.02;;;9.02;;
29196;SDS011;62796;42.654;23.316;2022-09-27T01:12:48;11.07;;;9.15;;
29196;SDS011;62796;42.654;23.316;2022-09-27T01:18:14;10.18;;;8.35;;
29196;SDS011;62796;42.654;23.316;2022-09-27T01:21:04;9.70;;;8.70;;
29196;SDS011;62796;42.654;23.316;2022-09-27T01:37:09;11.55;;;9.45;;
29196;SDS011;62796;42.654;23.316;2022-09-27T01:42:21;12.57;;;9.32;;
29196;SDS011;62796;42.654;23.316;2022-09-27T01:47:17;11.23;;;9.30;;
29196;SDS011;62796;42.654;23.316;2022-09-27T01:49:52;13.85;;;10.50;;
29196;SDS011;62796;42.654;23.316;2022-09-27T01:52:55;12.98;;;10.50;;
29196;SDS011;62796;42.654;23.316;2022-09-27T01:55:27;13.75;;;10.38;;
29196;SDS011;62796;42.654;23.316;2022-09-27T01:58:02;13.13;;;10.02;;
29196;SDS011;62796;42.654;23.316;2022-09-27T02:00:38;10.65;;;9.55;;
29196;SDS011;62796;42.654;23.316;2022-09-27T02:03:10;18.20;;;10.18;;
29196;SDS011;62796;42.654;23.316;2022-09-27T02:05:43;12.70;;;9.75;;
29196;SDS011;62796;42.654;23.316;2022-09-27T02:08:14;12.98;;;9.50;;
29196;SDS011;62796;42.654;23.316;2022-09-27T02:11:00;10.55;;;8.77;;
29196;SDS011;62796;42.654;23.316;2022-09-27T02:13:41;11.82;;;9.40;;
29196;SDS011;62796;42.654;23.316;2022-09-27T02:19:13;10.35;;;8.55;;
29196;SDS011;62796;42.654;23.316;2022-09-27T02:24:32;13.38;;;9.23;;
29196;SDS011;62796;42.654;23.316;2022-09-27T02:27:21;10.40;;;8.25;;
29196;SDS011;62796;42.654;23.316;2022-09-27T02:30:03;9.40;;;8.40;;
29196;SDS011;62796;42.654;23.316;2022-09-27T02:32:32;12.13;;;8.70;;
29196;SDS011;62796;42.654;23.316;2022-09-27T02:34:59;10.45;;;8.75;;
29196;SDS011;62796;42.654;23.316;2022-09-27T02:37:30;10.27;;;8.88;;
29196;SDS011;62796;42.654;23.316;2022-09-27T02:39:56;9.43;;;8.48;;
29196;SDS011;62796;42.654;23.316;2022-09-27T02:42:22;11.50;;;8.48;;
29196;SDS011;62796;42.654;23.316;2022-09-27T02:44:48;9.75;;;8.25;;
29196;SDS011;62796;42.654;23.316;2022-09-27T02:47:20;11.50;;;8.57;;
29196;SDS011;62796;42.654;23.316;2022-09-27T02:53:09;10.13;;;9.10;;
29196;SDS011;62796;42.654;23.316;2022-09-27T02:58:42;10.43;;;8.75;;
29196;SDS011;62796;42.654;23.316;2022-09-27T03:06:47;13.02;;;8.68;;
29196;SDS011;62796;42.654;23.316;2022-09-27T03:09:19;10.45;;;8.63;;
29196;SDS011;62796;42.654;23.316;2022-09-27T03:11:46;12.50;;;9.23;;
29196;SDS011;62796;42.654;23.316;2022-09-27T03:14:11;14.23;;;9.05;;
29196;SDS011;62796;42.654;23.316;2022-09-27T03:16:37;10.73;;;9.38;;
29196;SDS011;62796;42.654;23.316;2022-09-27T03:19:02;9.98;;;8.93;;
29196;SDS011;62796;42.654;23.316;2022-09-27T03:21:28;11.57;;;9.80;;
29196;SDS011;62796;42.654;23.316;2022-09-27T03:23:53;12.30;;;9.43;;
29196;SDS011;62796;42.654;23.316;2022-09-27T03:26:19;12.85;;;9.45;;
29196;SDS011;62796;42.654;23.316;2022-09-27T03:28:45;10.98;;;9.85;;
29196;SDS011;62796;42.654;23.316;2022-09-27T03:31:10;10.93;;;9.75;;
29196;SDS011;62796;42.654;23.316;2022-09-27T03:33:36;12.43;;;10.13;;
29196;SDS011;62796;42.654;23.316;2022-09-27T03:36:01;10.45;;;9.30;;
29196;SDS011;62796;42.654;23.316;2022-09-27T03:38:28;11.43;;;9.85;;
29196;SDS011;62796;42.654;23.316;2022-09-27T03:40:53;11.73;;;9.57;;
29196;SDS011;62796;42.654;23.316;2022-09-27T03:43:19;11.52;;;10.05;;
29196;SDS011;62796;42.654;23.316;2022-09-27T03:45:44;13.80;;;10.02;;
29196;SDS011;62796;42.654;23.316;2022-09-27T03:48:10;16.15;;;12.90;;
29196;SDS011;62796;42.654;23.316;2022-09-27T03:50:35;17.90;;;13.05;;
29196;SDS011;62796;42.654;23.316;2022-09-27T03:53:01;17.17;;;13.10;;
29196;SDS011;62796;42.654;23.316;2022-09-27T03:55:26;15.05;;;11.82;;
29196;SDS011;62796;42.654;23.316;2022-09-27T03:57:52;21.60;;;12.48;;
29196;SDS011;62796;42.654;23.316;2022-09-27T04:00:18;16.30;;;13.07;;
29196;SDS011;62796;42.654;23.316;2022-09-27T04:02:44;16.95;;;13.73;;
29196;SDS011;62796;42.654;23.316;2022-09-27T04:05:09;17.90;;;14.18;;
29196;SDS011;62796;42.654;23.316;2022-09-27T04:07:35;16.90;;;13.60;;
29196;SDS011;62796;42.654;23.316;2022-09-27T04:10:01;19.45;;;13.55;;
29196;SDS011;62796;42.654;23.316;2022-09-27T04:12:28;18.75;;;14.32;;
29196;SDS011;62796;42.654;23.316;2022-09-27T04:14:54;18.25;;;14.52;;
29196;SDS011;62796;42.654;23.316;2022-09-27T04:17:19;18.10;;;14.90;;
29196;SDS011;62796;42.654;23.316;2022-09-27T04:19:45;19.83;;;15.77;;
29196;SDS011;62796;42.654;23.316;2022-09-27T04:22:10;17.92;;;15.68;;
29196;SDS011;62796;42.654;23.316;2022-09-27T04:24:37;16.83;;;15.02;;
29196;SDS011;62796;42.654;23.316;2022-09-27T04:27:03;17.05;;;14.75;;
29196;SDS011;62796;42.654;23.316;2022-09-27T04:29:29;20.02;;;16.05;;
29196;SDS011;62796;42.654;23.316;2022-09-27T04:31:56;22.17;;;16.08;;
29196;SDS011;62796;42.654;23.316;2022-09-27T04:34:21;20.90;;;16.88;;
29196;SDS011;62796;42.654;23.316;2022-09-27T04:37:06;21.80;;;15.95;;
29196;SDS011;62796;42.654;23.316;2022-09-27T04:39:32;22.63;;;16.70;;
29196;SDS011;62796;42.654;23.316;2022-09-27T04:41:57;23.40;;;17.27;;
29196;SDS011;62796;42.654;23.316;2022-09-27T04:44:23;23.50;;;17.67;;
29196;SDS011;62796;42.654;23.316;2022-09-27T04:46:48;24.17;;;17.52;;
29196;SDS011;62796;42.654;23.316;2022-09-27T04:49:14;19.85;;;16.70;;
29196;SDS011;62796;42.654;23.316;2022-09-27T04:51:39;27.08;;;18.40;;
29196;SDS011;62796;42.654;23.316;2022-09-27T04:54:05;22.92;;;17.63;;
29196;SDS011;62796;42.654;23.316;2022-09-27T04:56:30;21.20;;;16.40;;
29196;SDS011;62796;42.654;23.316;2022-09-27T04:58:56;24.90;;;17.98;;
29196;SDS011;62796;42.654;23.316;2022-09-27T05:01:22;19.85;;;17.45;;
29196;SDS011;62796;42.654;23.316;2022-09-27T05:03:48;22.73;;;17.73;;
29196;SDS011;62796;42.654;23.316;2022-09-27T05:06:13;24.35;;;17.83;;
29196;SDS011;62796;42.654;23.316;2022-09-27T05:08:39;21.45;;;17.13;;
29196;SDS011;62796;42.654;23.316;2022-09-27T05:11:04;20.70;;;17.20;;
29196;SDS011;62796;42.654;23.316;2022-09-27T05:13:30;20.00;;;16.70;;
29196;SDS011;62796;42.654;23.316;2022-09-27T05:16:00;18.55;;;15.10;;
29196;SDS011;62796;42.654;23.316;2022-09-27T05:18:27;17.90;;;15.60;;
29196;SDS011;62796;42.654;23.316;2022-09-27T05:20:52;19.15;;;15.27;;
29196;SDS011;62796;42.654;23.316;2022-09-27T05:23:18;18.90;;;15.32;;
29196;SDS011;62796;42.654;23.316;2022-09-27T05:25:44;18.83;;;15.75;;
29196;SDS011;62796;42.654;23.316;2022-09-27T05:28:09;19.02;;;16.27;;
29196;SDS011;62796;42.654;23.316;2022-09-27T05:30:35;21.88;;;16.63;;
29196;SDS011;62796;42.654;23.316;2022-09-27T05:33:00;19.70;;;16.42;;
29196;SDS011;62796;42.654;23.316;2022-09-27T05:35:26;19.58;;;14.73;;
29196;SDS011;62796;42.654;23.316;2022-09-27T05:37:52;18.27;;;13.50;;
29196;SDS011;62796;42.654;23.316;2022-09-27T05:40:18;21.92;;;16.45;;
29196;SDS011;62796;42.654;23.316;2022-09-27T05:42:49;24.30;;;16.58;;
29196;SDS011;62796;42.654;23.316;2022-09-27T05:45:18;21.95;;;16.02;;
29196;SDS011;62796;42.654;23.316;2022-09-27T05:47:51;18.63;;;15.88;;
29196;SDS011;62796;42.654;23.316;2022-09-27T05:50:17;19.30;;;16.80;;
29196;SDS011;62796;42.654;23.316;2022-09-27T05:52:42;19.27;;;16.33;;
29196;SDS011;62796;42.654;23.316;2022-09-27T05:55:08;18.55;;;15.80;;
29196;SDS011;62796;42.654;23.316;2022-09-27T05:57:33;21.05;;;16.55;;
29196;SDS011;62796;42.654;23.316;2022-09-27T05:59:59;23.60;;;16.92;;
29196;SDS011;62796;42.654;23.316;2022-09-27T06:02:24;22.40;;;17.00;;
29196;SDS011;62796;42.654;23.316;2022-09-27T06:04:50;20.88;;;17.25;;
29196;SDS011;62796;42.654;23.316;2022-09-27T06:07:15;19.15;;;17.02;;
29196;SDS011;62796;42.654;23.316;2022-09-27T06:09:41;23.67;;;17.40;;
29196;SDS011;62796;42.654;23.316;2022-09-27T06:12:08;23.13;;;18.20;;
29196;SDS011;62796;42.654;23.316;2022-09-27T06:14:35;23.77;;;17.27;;
29196;SDS011;62796;42.654;23.316;2022-09-27T06:17:02;24.75;;;17.13;;
29196;SDS011;62796;42.654;23.316;2022-09-27T06:19:28;29.60;;;16.65;;
29196;SDS011;62796;42.654;23.316;2022-09-27T06:21:54;21.25;;;16.23;;
29196;SDS011;62796;42.654;23.316;2022-09-27T06:24:19;33.67;;;18.52;;
29196;SDS011;62796;42.654;23.316;2022-09-27T06:26:45;24.45;;;15.65;;
29196;SDS011;62796;42.654;23.316;2022-09-27T06:29:11;22.00;;;17.77;;
29196;SDS011;62796;42.654;23.316;2022-09-27T06:31:36;23.02;;;15.32;;
29196;SDS011;62796;42.654;23.316;2022-09-27T06:34:01;22.52;;;17.25;;
29196;SDS011;62796;42.654;23.316;2022-09-27T06:36:27;22.23;;;16.38;;
29196;SDS011;62796;42.654;23.316;2022-09-27T06:38:53;23.73;;;17.70;;
29196;SDS011;62796;42.654;23.316;2022-09-27T06:41:18;22.80;;;16.92;;
29196;SDS011;62796;42.654;23.316;2022-09-27T06:43:44;20.75;;;16.50;;
29196;SDS011;62796;42.654;23.316;2022-09-27T06:46:09;23.35;;;16.50;;
29196;SDS011;62796;42.654;23.316;2022-09-27T06:48:35;24.13;;;17.13;;
29196;SDS011;62796;42.654;23.316;2022-09-27T06:51:02;23.58;;;16.55;;
29196;SDS011;62796;42.654;23.316;2022-09-27T06:53:28;22.23;;;16.88;;
29196;SDS011;62796;42.654;23.316;2022-09-27T06:55:57;20.75;;;17.05;;
29196;SDS011;62796;42.654;23.316;2022-09-27T06:58:24;22.63;;;18.25;;
29196;SDS011;62796;42.654;23.316;2022-09-27T07:01:08;23.65;;;17.90;;
29196;SDS011;62796;42.654;23.316;2022-09-27T07:03:34;29.45;;;17.38;;
29196;SDS011;62796;42.654;23.316;2022-09-27T07:06:04;20.80;;;17.58;;
29196;SDS011;62796;42.654;23.316;2022-09-27T07:08:30;24.30;;;17.75;;
29196;SDS011;62796;42.654;23.316;2022-09-27T07:11:02;25.10;;;16.45;;
29196;SDS011;62796;42.654;23.316;2022-09-27T07:13:29;23.35;;;17.52;;
29196;SDS011;62796;42.654;23.316;2022-09-27T07:15:56;20.17;;;16.50;;
29196;SDS011;62796;42.654;23.316;2022-09-27T07:18:22;19.67;;;16.50;;
29196;SDS011;62796;42.654;23.316;2022-09-27T07:20:48;22.58;;;17.17;;
29196;SDS011;62796;42.654;23.316;2022-09-27T07:23:14;25.42;;;17.67;;
29196;SDS011;62796;42.654;23.316;2022-09-27T07:25:40;20.48;;;16.70;;
29196;SDS011;62796;42.654;23.316;2022-09-27T07:28:07;21.27;;;16.17;;
29196;SDS011;62796;42.654;23.316;2022-09-27T07:30:38;24.33;;;18.65;;
29196;SDS011;62796;42.654;23.316;2022-09-27T07:33:04;27.42;;;18.63;;
29196;SDS011;62796;42.654;23.316;2022-09-27T07:35:30;25.75;;;18.02;;
29196;SDS011;62796;42.654;23.316;2022-09-27T07:37:56;28.38;;;20.05;;
29196;SDS011;62796;42.654;23.316;2022-09-27T07:40:23;25.33;;;18.73;;
29196;SDS011;62796;42.654;23.316;2022-09-27T07:42:55;22.98;;;20.05;;
29196;SDS011;62796;42.654;23.316;2022-09-27T07:45:23;22.20;;;18.10;;
29196;SDS011;62796;42.654;23.316;2022-09-27T07:47:49;27.38;;;19.80;;
29196;SDS011;62796;42.654;23.316;2022-09-27T07:50:15;22.63;;;18.95;;
29196;SDS011;62796;42.654;23.316;2022-09-27T07:52:41;22.83;;;18.48;;
29196;SDS011;62796;42.654;23.316;2022-09-27T07:55:09;23.20;;;19.10;;
29196;SDS011;62796;42.654;23.316;2022-09-27T07:57:36;21.80;;;17.92;;
29196;SDS011;62796;42.654;23.316;2022-09-27T08:00:09;20.52;;;18.15;;
29196;SDS011;62796;42.654;23.316;2022-09-27T08:02:39;27.60;;;17.77;;
29196;SDS011;62796;42.654;23.316;2022-09-27T08:05:05;25.05;;;17.65;;
29196;SDS011;62796;42.654;23.316;2022-09-27T08:07:31;27.02;;;20.70;;
29196;SDS011;62796;42.654;23.316;2022-09-27T08:09:57;29.70;;;21.17;;
29196;SDS011;62796;42.654;23.316;2022-09-27T08:12:22;30.25;;;22.80;;
29196;SDS011;62796;42.654;23.316;2022-09-27T08:14:48;30.45;;;21.10;;
29196;SDS011;62796;42.654;23.316;2022-09-27T08:17:14;26.05;;;20.23;;
29196;SDS011;62796;42.654;23.316;2022-09-27T08:19:40;21.35;;;19.02;;
29196;SDS011;62796;42.654;23.316;2022-09-27T08:22:08;27.02;;;20.63;;
29196;SDS011;62796;42.654;23.316;2022-09-27T08:24:34;29.95;;;19.58;;
29196;SDS011;62796;42.654;23.316;2022-09-27T08:27:01;24.48;;;19.85;;
29196;SDS011;62796;42.654;23.316;2022-09-27T08:29:26;33.90;;;20.55;;
29196;SDS011;62796;42.654;23.316;2022-09-27T08:31:52;26.17;;;20.05;;
29196;SDS011;62796;42.654;23.316;2022-09-27T08:34:18;26.70;;;21.88;;
29196;SDS011;62796;42.654;23.316;2022-09-27T08:36:45;23.08;;;19.58;;
29196;SDS011;62796;42.654;23.316;2022-09-27T08:39:11;27.38;;;20.80;;
29196;SDS011;62796;42.654;23.316;2022-09-27T08:41:48;22.73;;;18.67;;
29196;SDS011;62796;42.654;23.316;2022-09-27T08:47:35;29.67;;;20.80;;
29196;SDS011;62796;42.654;23.316;2022-09-27T09:00:55;23.25;;;19.55;;
29196;SDS011;62796;42.654;23.316;2022-09-27T09:03:24;26.25;;;21.65;;
29196;SDS011;62796;42.654;23.316;2022-09-27T09:14:59;29.63;;;22.55;;
29196;SDS011;62796;42.654;23.316;2022-09-27T09:23:32;20.52;;;17.40;;
29196;SDS011;62796;42.654;23.316;2022-09-27T09:26:33;20.38;;;17.35;;
29196;SDS011;62796;42.654;23.316;2022-09-27T09:34:58;20.63;;;17.23;;
29196;SDS011;62796;42.654;23.316;2022-09-27T09:38:09;25.63;;;15.82;;
29196;SDS011;62796;42.654;23.316;2022-09-27T09:40:27;18.50;;;15.03;;
29196;SDS011;62796;42.654;23.316;2022-09-27T09:43:06;16.48;;;13.38;;
29196;SDS011;62796;42.654;23.316;2022-09-27T09:45:40;17.55;;;14.32;;
29196;SDS011;62796;42.654;23.316;2022-09-27T09:51:17;27.23;;;15.65;;
29196;SDS011;62796;42.654;23.316;2022-09-27T09:53:53;18.27;;;14.27;;
29196;SDS011;62796;42.654;23.316;2022-09-27T09:56:27;15.68;;;13.52;;
29196;SDS011;62796;42.654;23.316;2022-09-27T09:58:58;16.23;;;12.73;;
29196;SDS011;62796;42.654;23.316;2022-09-27T10:01:28;20.05;;;12.68;;
29196;SDS011;62796;42.654;23.316;2022-09-27T10:03:59;17.25;;;13.30;;
29196;SDS011;62796;42.654;23.316;2022-09-27T10:06:24;15.23;;;12.02;;
29196;SDS011;62796;42.654;23.316;2022-09-27T10:08:51;18.75;;;13.07;;
29196;SDS011;62796;42.654;23.316;2022-09-27T10:11:23;16.15;;;13.40;;
29196;SDS011;62796;42.654;23.316;2022-09-27T10:13:56;16.67;;;14.05;;
29196;SDS011;62796;42.654;23.316;2022-09-27T10:16:22;15.18;;;12.93;;
29196;SDS011;62796;42.654;23.316;2022-09-27T10:18:51;14.95;;;12.27;;
29196;SDS011;62796;42.654;23.316;2022-09-27T10:21:29;18.45;;;13.40;;
29196;SDS011;62796;42.654;23.316;2022-09-27T10:26:37;13.98;;;12.18;;
29196;SDS011;62796;42.654;23.316;2022-09-27T10:31:53;16.17;;;12.40;;
29196;SDS011;62796;42.654;23.316;2022-09-27T10:37:00;14.50;;;11.55;;
29196;SDS011;62796;42.654;23.316;2022-09-27T10:39:29;14.07;;;10.82;;
29196;SDS011;62796;42.654;23.316;2022-09-27T10:41:54;13.45;;;11.55;;
29196;SDS011;62796;42.654;23.316;2022-09-27T10:44:24;15.77;;;11.30;;
29196;SDS011;62796;42.654;23.316;2022-09-27T10:46:52;16.30;;;12.68;;
29196;SDS011;62796;42.654;23.316;2022-09-27T10:49:21;13.15;;;11.18;;
29196;SDS011;62796;42.654;23.316;2022-09-27T10:51:52;12.38;;;10.55;;
29196;SDS011;62796;42.654;23.316;2022-09-27T10:54:24;12.35;;;10.10;;
29196;SDS011;62796;42.654;23.316;2022-09-27T10:57:34;16.63;;;11.15;;
29196;SDS011;62796;42.654;23.316;2022-09-27T11:03:11;10.07;;;8.55;;
29196;SDS011;62796;42.654;23.316;2022-09-27T11:05:39;9.80;;;8.15;;
29196;SDS011;62796;42.654;23.316;2022-09-27T11:10:43;10.60;;;7.57;;
29196;SDS011;62796;42.654;23.316;2022-09-27T11:13:23;17.98;;;8.43;;
29196;SDS011;62796;42.654;23.316;2022-09-27T11:21:36;13.13;;;7.63;;
29196;SDS011;62796;42.654;23.316;2022-09-27T11:30:12;10.93;;;7.32;;
29196;SDS011;62796;42.654;23.316;2022-09-27T11:45:39;7.45;;;5.43;;
29196;SDS011;62796;42.654;23.316;2022-09-27T11:56:57;7.28;;;5.55;;
29196;SDS011;62796;42.654;23.316;2022-09-27T12:10:37;7.13;;;3.90;;
29196;SDS011;62796;42.654;23.316;2022-09-27T12:13:07;6.07;;;4.47;;
29196;SDS011;62796;42.654;23.316;2022-09-27T12:15:38;5.57;;;4.55;;
29196;SDS011;62796;42.654;23.316;2022-09-27T12:18:23;4.80;;;4.32;;
29196;SDS011;62796;42.654;23.316;2022-09-27T12:20:53;7.32;;;4.53;;
29196;SDS011;62796;42.654;23.316;2022-09-27T12:23:24;5.43;;;3.90;;
29196;SDS011;62796;42.654;23.316;2022-09-27T12:25:58;9.38;;;5.55;;
29196;SDS011;62796;42.654;23.316;2022-09-27T12:37:17;6.40;;;4.13;;
29196;SDS011;62796;42.654;23.316;2022-09-27T12:39:48;4.82;;;3.78;;
29196;SDS011;62796;42.654;23.316;2022-09-27T12:42:34;4.15;;;3.25;;
29196;SDS011;62796;42.654;23.316;2022-09-27T12:45:04;4.80;;;3.38;;
29196;SDS011;62796;42.654;23.316;2022-09-27T12:50:14;5.45;;;3.47;;
29196;SDS011;62796;42.654;23.316;2022-09-27T12:52:54;4.93;;;3.65;;
29196;SDS011;62796;42.654;23.316;2022-09-27T12:55:31;4.68;;;3.25;;
29196;SDS011;62796;42.654;23.316;2022-09-27T13:00:58;4.03;;;3.47;;
29196;SDS011;62796;42.654;23.316;2022-09-27T13:11:46;2.15;;;1.23;;
29196;SDS011;62796;42.654;23.316;2022-09-27T13:14:42;5.60;;;1.80;;
29196;SDS011;62796;42.654;23.316;2022-09-27T13:20:31;3.55;;;1.20;;
29196;SDS011;62796;42.654;23.316;2022-09-27T13:22:57;2.72;;;1.40;;
29196;SDS011;62796;42.654;23.316;2022-09-27T13:30:53;2.78;;;1.10;;
29196;SDS011;62796;42.654;23.316;2022-09-27T13:33:21;2.30;;;1.23;;
29196;SDS011;62796;42.654;23.316;2022-09-27T13:41:25;2.17;;;1.20;;
29196;SDS011;62796;42.654;23.316;2022-09-27T13:46:46;2.15;;;1.30;;
29196;SDS011;62796;42.654;23.316;2022-09-27T13:49:27;2.17;;;1.20;;
29196;SDS011;62796;42.654;23.316;2022-09-27T13:52:21;3.60;;;1.30;;
29196;SDS011;62796;42.654;23.316;2022-09-27T13:54:58;6.35;;;1.50;;
29196;SDS011;62796;42.654;23.316;2022-09-27T14:00:22;4.80;;;1.23;;
29196;SDS011;62796;42.654;23.316;2022-09-27T14:03:06;1.52;;;1.30;;
29196;SDS011;62796;42.654;23.316;2022-09-27T14:06:04;4.72;;;1.40;;
29196;SDS011;62796;42.654;23.316;2022-09-27T14:08:33;4.47;;;1.60;;
29196;SDS011;62796;42.654;23.316;2022-09-27T14:11:00;4.28;;;1.23;;
29196;SDS011;62796;42.654;23.316;2022-09-27T14:13:27;2.67;;;1.10;;
29196;SDS011;62796;42.654;23.316;2022-09-27T14:15:56;3.42;;;1.58;;
29196;SDS011;62796;42.654;23.316;2022-09-27T14:18:24;4.15;;;1.50;;
29196;SDS011;62796;42.654;23.316;2022-09-27T14:20:50;1.17;;;0.98;;
29196;SDS011;62796;42.654;23.316;2022-09-27T14:23:18;1.83;;;1.30;;
29196;SDS011;62796;42.654;23.316;2022-09-27T14:25:47;1.83;;;1.40;;
29196;SDS011;62796;42.654;23.316;2022-09-27T14:28:20;5.85;;;2.03;;
29196;SDS011;62796;42.654;23.316;2022-09-27T14:31:18;2.58;;;1.20;;
29196;SDS011;62796;42.654;23.316;2022-09-27T14:33:48;7.38;;;2.00;;
29196;SDS011;62796;42.654;23.316;2022-09-27T14:39:15;2.08;;;1.10;;
29196;SDS011;62796;42.654;23.316;2022-09-27T14:41:49;2.33;;;1.10;;
29196;SDS011;62796;42.654;23.316;2022-09-27T14:44:16;1.25;;;1.13;;
29196;SDS011;62796;42.654;23.316;2022-09-27T14:46:43;2.80;;;1.52;;
29196;SDS011;62796;42.654;23.316;2022-09-27T14:49:10;5.38;;;2.92;;
29196;SDS011;62796;42.654;23.316;2022-09-27T14:51:51;8.88;;;2.83;;
29196;SDS011;62796;42.654;23.316;2022-09-27T14:54:22;7.95;;;3.20;;
29196;SDS011;62796;42.654;23.316;2022-09-27T14:56:50;10.48;;;3.30;;
29196;SDS011;62796;42.654;23.316;2022-09-27T15:01:58;4.55;;;3.00;;
29196;SDS011;62796;42.654;23.316;2022-09-27T15:04:27;7.65;;;3.10;;
29196;SDS011;62796;42.654;23.316;2022-09-27T15:06:55;9.20;;;2.90;;
29196;SDS011;62796;42.654;23.316;2022-09-27T15:09:21;8.07;;;3.28;;
29196;SDS011;62796;42.654;23.316;2022-09-27T15:11:48;12.65;;;3.67;;
29196;SDS011;62796;42.654;23.316;2022-09-27T15:14:18;10.65;;;1.55;;
29196;SDS011;62796;42.654;23.316;2022-09-27T15:16:47;6.13;;;1.77;;
29196;SDS011;62796;42.654;23.316;2022-09-27T15:19:22;3.75;;;1.23;;
29196;SDS011;62796;42.654;23.316;2022-09-27T15:21:51;4.25;;;1.58;;
29196;SDS011;62796;42.654;23.316;2022-09-27T15:29:27;4.10;;;1.77;;
29196;SDS011;62796;42.654;23.316;2022-09-27T15:32:03;7.68;;;2.00;;
29196;SDS011;62796;42.654;23.316;2022-09-27T15:34:31;4.38;;;1.95;;
29196;SDS011;62796;42.654;23.316;2022-09-27T15:36:59;6.72;;;1.63;;
29196;SDS011;62796;42.654;23.316;2022-09-27T15:42:09;5.63;;;1.98;;
29196;SDS011;62796;42.654;23.316;2022-09-27T15:49:58;12.10;;;4.55;;
29196;SDS011;62796;42.654;23.316;2022-09-27T15:52:44;5.78;;;2.88;;
29196;SDS011;62796;42.654;23.316;2022-09-27T15:55:14;5.03;;;2.90;;
29196;SDS011;62796;42.654;23.316;2022-09-27T15:57:41;6.43;;;3.10;;
29196;SDS011;62796;42.654;23.316;2022-09-27T16:00:11;11.20;;;4.35;;
29196;SDS011;62796;42.654;23.316;2022-09-27T16:02:38;9.10;;;3.38;;
29196;SDS011;62796;42.654;23.316;2022-09-27T16:05:03;7.15;;;3.03;;
29196;SDS011;62796;42.654;23.316;2022-09-27T16:07:29;12.43;;;2.80;;
29196;SDS011;62796;42.654;23.316;2022-09-27T16:09:54;6.57;;;2.58;;
29196;SDS011;62796;42.654;23.316;2022-09-27T16:12:20;4.93;;;2.13;;
29196;SDS011;62796;42.654;23.316;2022-09-27T16:14:46;6.20;;;2.58;;
29196;SDS011;62796;42.654;23.316;2022-09-27T16:17:12;6.00;;;2.45;;
29196;SDS011;62796;42.654;23.316;2022-09-27T16:19:38;4.05;;;1.90;;
29196;SDS011;62796;42.654;23.316;2022-09-27T16:22:03;5.50;;;2.30;;
29196;SDS011;62796;42.654;23.316;2022-09-27T16:24:29;10.00;;;5.50;;
29196;SDS011;62796;42.654;23.316;2022-09-27T16:26:56;7.57;;;3.78;;
29196;SDS011;62796;42.654;23.316;2022-09-27T16:29:22;4.13;;;2.83;;
29196;SDS011;62796;42.654;23.316;2022-09-27T16:31:47;2.83;;;1.90;;
29196;SDS011;62796;42.654;23.316;2022-09-27T16:34:12;6.75;;;2.45;;
29196;SDS011;62796;42.654;23.316;2022-09-27T16:36:38;6.05;;;3.78;;
29196;SDS011;62796;42.654;23.316;2022-09-27T16:39:11;8.40;;;4.90;;
29196;SDS011;62796;42.654;23.316;2022-09-27T16:41:37;13.90;;;4.90;;
29196;SDS011;62796;42.654;23.316;2022-09-27T16:44:12;9.75;;;4.63;;
29196;SDS011;62796;42.654;23.316;2022-09-27T16:46:41;7.72;;;3.80;;
29196;SDS011;62796;42.654;23.316;2022-09-27T16:49:10;5.38;;;2.20;;
29196;SDS011;62796;42.654;23.316;2022-09-27T16:51:54;5.97;;;2.53;;
29196;SDS011;62796;42.654;23.316;2022-09-27T16:54:26;4.13;;;2.40;;
29196;SDS011;62796;42.654;23.316;2022-09-27T16:56:53;3.10;;;2.15;;
29196;SDS011;62796;42.654;23.316;2022-09-27T16:59:19;3.80;;;2.13;;
29196;SDS011;62796;42.654;23.316;2022-09-27T17:01:45;3.33;;;2.53;;
29196;SDS011;62796;42.654;23.316;2022-09-27T17:04:11;6.93;;;3.60;;
29196;SDS011;62796;42.654;23.316;2022-09-27T17:06:38;8.75;;;4.22;;
29196;SDS011;62796;42.654;23.316;2022-09-27T17:09:04;5.63;;;3.80;;
29196;SDS011;62796;42.654;23.316;2022-09-27T17:11:30;5.68;;;3.08;;
29196;SDS011;62796;42.654;23.316;2022-09-27T17:13:56;5.43;;;2.83;;
29196;SDS011;62796;42.654;23.316;2022-09-27T17:16:21;9.52;;;3.72;;
29196;SDS011;62796;42.654;23.316;2022-09-27T17:18:48;9.75;;;5.60;;
29196;SDS011;62796;42.654;23.316;2022-09-27T17:21:13;7.32;;;4.65;;
29196;SDS011;62796;42.654;23.316;2022-09-27T17:23:39;9.23;;;5.20;;
29196;SDS011;62796;42.654;23.316;2022-09-27T17:26:05;13.05;;;6.95;;
29196;SDS011;62796;42.654;23.316;2022-09-27T17:28:44;6.97;;;4.70;;
29196;SDS011;62796;42.654;23.316;2022-09-27T17:31:11;5.97;;;3.40;;
29196;SDS011;62796;42.654;23.316;2022-09-27T17:33:46;5.07;;;3.28;;
29196;SDS011;62796;42.654;23.316;2022-09-27T17:36:14;7.05;;;3.50;;
29196;SDS011;62796;42.654;23.316;2022-09-27T17:38:44;6.00;;;3.25;;
29196;SDS011;62796;42.654;23.316;2022-09-27T17:41:12;5.05;;;3.25;;
29196;SDS011;62796;42.654;23.316;2022-09-27T17:43:39;5.47;;;3.20;;
29196;SDS011;62796;42.654;23.316;2022-09-27T17:46:18;24.42;;;17.70;;
29196;SDS011;62796;42.654;23.316;2022-09-27T17:48:46;8.15;;;4.85;;
29196;SDS011;62796;42.654;23.316;2022-09-27T17:51:31;9.18;;;5.05;;
29196;SDS011;62796;42.654;23.316;2022-09-27T17:53:58;10.45;;;7.20;;